createdAt,value
2018-10-11T00:01:29.401Z,12.00
2018-10-11T00:03:57.591Z,12.10
2018-10-11T00:06:25.765Z,12.30
2018-10-11T00:08:53.941Z,12.30
2018-10-11T00:11:22.106Z,12.40
2018-10-11T00:13:50.302Z,12.40
2018-10-11T00:16:18.469Z,11.80
2018-10-11T00:18:46.628Z,11.70
2018-10-11T00:21:14.801Z,11.90
2018-10-11T00:23:42.979Z,12.00
2018-10-11T00:26:11.149Z,11.80
2018-10-11T00:28:39.330Z,11.50
2018-10-11T00:31:07.528Z,11.30
2018-10-11T00:33:35.715Z,11.20
2018-10-11T00:36:03.916Z,11.10
2018-10-11T00:38:32.092Z,11.00
2018-10-11T00:41:00.267Z,10.90
2018-10-11T00:43:28.452Z,11.10
2018-10-11T00:45:56.632Z,11.40
2018-10-11T00:48:24.805Z,11.20
2018-10-11T00:50:52.990Z,11.00
2018-10-11T00:53:21.269Z,10.80
2018-10-11T00:55:49.437Z,10.70
2018-10-11T00:58:17.640Z,10.50
2018-10-11T01:00:45.821Z,10.50
2018-10-11T01:03:13.993Z,10.60
2018-10-11T01:05:42.153Z,10.70
2018-10-11T01:08:10.398Z,10.70
2018-10-11T01:10:38.582Z,10.50
2018-10-11T01:13:07.013Z,10.30
2018-10-11T01:15:35.230Z,10.30
2018-10-11T01:18:03.445Z,10.40
2018-10-11T01:20:31.709Z,10.40
2018-10-11T01:22:59.905Z,10.40
2018-10-11T01:25:28.105Z,10.50
2018-10-11T01:27:56.541Z,10.50
2018-10-11T01:30:25.225Z,10.60
2018-10-11T01:32:53.389Z,10.80
2018-10-11T01:35:21.552Z,11.00
2018-10-11T01:37:49.719Z,11.10
2018-10-11T01:40:17.892Z,10.90
2018-10-11T01:42:46.157Z,10.80
2018-10-11T01:45:14.382Z,10.80
2018-10-11T01:47:42.547Z,10.60
2018-10-11T01:50:10.712Z,10.20
2018-10-11T01:52:38.932Z,10.20
2018-10-11T01:55:07.113Z,10.10
2018-10-11T01:57:35.262Z,9.90
2018-10-11T02:00:03.456Z,10.10
2018-10-11T02:02:31.604Z,10.30
2018-10-11T02:04:59.796Z,10.60
2018-10-11T02:07:27.998Z,10.80
2018-10-11T02:09:56.192Z,10.40
2018-10-11T02:12:24.354Z,10.10
2018-10-11T02:14:52.535Z,9.90
2018-10-11T02:17:20.708Z,9.70
2018-10-11T02:19:48.901Z,9.70
2018-10-11T02:22:17.046Z,9.90
2018-10-11T02:24:45.254Z,10.10
2018-10-11T02:27:13.486Z,10.40
2018-10-11T02:29:41.673Z,10.20
2018-10-11T02:32:09.879Z,10.00
2018-10-11T02:34:38.253Z,10.00
2018-10-11T02:37:06.532Z,10.00
2018-10-11T02:39:34.713Z,9.90
2018-10-11T02:42:02.953Z,9.90
2018-10-11T02:44:31.149Z,9.90
2018-10-11T02:46:59.395Z,10.00
2018-10-11T02:49:27.672Z,10.10
2018-10-11T02:51:56.617Z,10.10
2018-10-11T02:54:24.799Z,10.10
2018-10-11T02:56:57.769Z,10.10
2018-10-11T02:59:32.438Z,10.20
2018-10-11T03:02:02.836Z,10.40
2018-10-11T03:04:31.660Z,10.50
2018-10-11T03:06:59.849Z,10.60
2018-10-11T03:09:28.018Z,10.60
2018-10-11T03:11:56.212Z,10.60
2018-10-11T03:14:24.842Z,10.60
2018-10-11T03:16:53.026Z,10.50
2018-10-11T03:19:21.204Z,10.20
2018-10-11T03:21:49.392Z,10.10
2018-10-11T03:24:17.589Z,10.30
2018-10-11T03:26:45.765Z,10.40
2018-10-11T03:29:13.941Z,10.30
2018-10-11T03:31:42.138Z,10.40
2018-10-11T03:34:10.534Z,10.30
2018-10-11T03:36:38.701Z,9.90
2018-10-11T03:39:07.375Z,9.70
2018-10-11T03:41:35.577Z,9.50
2018-10-11T03:44:03.779Z,9.40
2018-10-11T03:46:32.068Z,9.40
2018-10-11T03:49:00.239Z,9.30
2018-10-11T03:51:28.736Z,9.30
2018-10-11T03:53:57.082Z,9.50
2018-10-11T03:56:25.320Z,9.30
2018-10-11T03:58:53.503Z,9.30
2018-10-11T04:01:21.661Z,9.60
2018-10-11T04:03:49.848Z,9.70
2018-10-11T04:06:18.044Z,9.60
2018-10-11T04:08:46.222Z,9.20
2018-10-11T04:11:14.365Z,9.00
2018-10-11T04:13:42.845Z,8.80
2018-10-11T04:16:11.093Z,8.80
2018-10-11T04:18:39.549Z,9.00
2018-10-11T04:21:07.725Z,9.10
2018-10-11T04:23:35.901Z,9.30
2018-10-11T04:26:04.121Z,9.50
2018-10-11T04:28:32.309Z,9.30
2018-10-11T04:31:03.481Z,9.10
2018-10-11T04:33:31.729Z,8.80
2018-10-11T04:35:59.917Z,8.70
2018-10-11T04:38:28.525Z,8.80
2018-10-11T04:40:56.773Z,9.00
2018-10-11T04:43:24.981Z,8.70
2018-10-11T04:45:53.148Z,8.90
2018-10-11T04:48:21.321Z,8.80
2018-10-11T04:50:49.495Z,8.60
2018-10-11T04:53:17.686Z,8.80
2018-10-11T04:55:45.898Z,9.00
2018-10-11T04:58:14.097Z,9.00
2018-10-11T05:00:42.315Z,9.10
2018-10-11T05:03:11.864Z,8.70
2018-10-11T05:05:40.430Z,8.60
2018-10-11T05:08:08.658Z,8.70
2018-10-11T05:10:36.949Z,8.80
2018-10-11T05:13:05.172Z,9.00
2018-10-11T05:15:34.641Z,8.90
2018-10-11T05:18:03.662Z,9.00
2018-10-11T05:20:31.960Z,9.10
2018-10-11T05:23:00.128Z,9.20
2018-10-11T05:25:28.363Z,8.90
2018-10-11T05:27:56.547Z,9.00
2018-10-11T05:30:25.274Z,9.10
2018-10-11T05:32:53.676Z,9.00
2018-10-11T05:35:21.933Z,9.20
2018-10-11T05:37:53.174Z,9.00
2018-10-11T05:40:21.357Z,8.70
2018-10-11T05:42:49.544Z,8.70
2018-10-11T05:45:19.437Z,8.60
2018-10-11T05:47:47.620Z,8.40
2018-10-11T05:50:16.671Z,8.30
2018-10-11T05:52:45.037Z,8.50
2018-10-11T05:55:13.572Z,8.70
2018-10-11T05:57:41.997Z,8.80
2018-10-11T06:00:11.043Z,8.90
2018-10-11T06:02:50.513Z,9.10
2018-10-11T06:05:18.751Z,9.00
2018-10-11T06:07:46.985Z,8.80
2018-10-11T06:10:15.243Z,8.50
2018-10-11T06:12:43.665Z,8.20
2018-10-11T06:15:12.250Z,8.30
2018-10-11T06:17:40.969Z,8.50
2018-10-11T06:20:09.175Z,8.90
2018-10-11T06:22:37.383Z,9.70
2018-10-11T06:25:05.592Z,10.20
2018-10-11T06:27:33.759Z,9.90
2018-10-11T06:30:01.941Z,9.50
2018-10-11T06:32:30.125Z,9.30
2018-10-11T06:34:58.328Z,9.30
2018-10-11T06:37:27.160Z,10.10
2018-10-11T06:39:55.711Z,9.80
2018-10-11T06:42:24.038Z,9.70
2018-10-11T06:44:52.122Z,9.70
2018-10-11T06:47:20.875Z,9.80
2018-10-11T06:49:49.052Z,10.70
2018-10-11T06:52:17.286Z,11.90
2018-10-11T06:54:45.564Z,12.60
2018-10-11T06:57:13.750Z,11.30
2018-10-11T06:59:41.933Z,11.00
2018-10-11T07:02:10.125Z,12.10
2018-10-11T07:04:38.369Z,13.10
2018-10-11T07:07:06.714Z,13.50
2018-10-11T07:09:34.900Z,14.00
2018-10-11T07:12:03.080Z,13.60
2018-10-11T07:14:31.301Z,13.10
2018-10-11T07:16:59.497Z,12.40
2018-10-11T07:19:27.981Z,12.00
2018-10-11T07:21:56.076Z,12.00
2018-10-11T07:24:24.253Z,12.20
2018-10-11T07:26:52.447Z,13.50
2018-10-11T07:29:20.689Z,13.10
2018-10-11T07:31:48.963Z,12.80
2018-10-11T07:34:17.853Z,12.90
2018-10-11T07:36:46.017Z,13.00
2018-10-11T07:39:14.382Z,14.00
2018-10-11T07:41:42.877Z,13.90
2018-10-11T07:44:11.129Z,14.20
2018-10-11T07:46:39.720Z,13.60
2018-10-11T07:49:08.726Z,14.80
2018-10-11T07:51:37.306Z,14.50
2018-10-11T07:54:05.508Z,14.80
2018-10-11T07:56:34.071Z,14.60
2018-10-11T07:59:02.362Z,14.70
2018-10-11T08:01:31.126Z,15.20
2018-10-11T08:03:59.601Z,14.90
2018-10-11T08:06:28.056Z,14.80
2018-10-11T08:08:56.261Z,15.40
2018-10-11T08:11:25.370Z,14.70
2018-10-11T08:13:53.456Z,15.10
2018-10-11T08:16:21.786Z,14.60
2018-10-11T08:18:49.992Z,14.70
2018-10-11T08:21:18.112Z,14.90
2018-10-11T08:23:46.325Z,14.60
2018-10-11T08:26:14.818Z,14.60
2018-10-11T08:28:42.722Z,14.70
2018-10-11T08:31:11.756Z,14.50
2018-10-11T08:33:39.967Z,14.80
2018-10-11T08:36:08.559Z,15.60
2018-10-11T08:38:36.952Z,15.30
2018-10-11T08:41:05.093Z,15.70
2018-10-11T08:43:33.350Z,16.70
2018-10-11T08:46:01.433Z,18.00
2018-10-11T08:48:29.732Z,18.90
2018-10-11T08:50:58.035Z,19.10
2018-10-11T08:53:26.190Z,19.20
2018-10-11T08:55:54.348Z,18.90
2018-10-11T08:58:22.525Z,18.60
2018-10-11T09:00:50.760Z,18.20
2018-10-11T09:03:18.955Z,18.30
2018-10-11T09:05:47.088Z,18.30
2018-10-11T09:08:15.337Z,18.30
2018-10-11T09:10:43.651Z,18.80
2018-10-11T09:13:11.841Z,19.30
2018-10-11T09:15:40.047Z,19.70
2018-10-11T09:18:08.233Z,20.00
2018-10-11T09:20:36.430Z,18.70
2018-10-11T09:23:04.659Z,19.00
2018-10-11T09:25:32.855Z,18.40
2018-10-11T09:28:01.029Z,18.10
2018-10-11T09:30:29.255Z,18.10
2018-10-11T09:32:57.409Z,18.90
2018-10-11T09:35:25.611Z,19.40
2018-10-11T09:37:53.788Z,19.50
2018-10-11T09:40:21.969Z,19.40
2018-10-11T09:42:50.154Z,19.10
2018-10-11T09:45:18.414Z,19.30
2018-10-11T09:47:46.949Z,19.00
2018-10-11T09:50:15.174Z,18.90
2018-10-11T09:52:43.357Z,18.40
2018-10-11T09:55:11.525Z,18.60
2018-10-11T09:57:39.831Z,18.60
2018-10-11T10:00:15.841Z,18.70
2018-10-11T10:02:44.481Z,19.00
2018-10-11T10:05:12.721Z,19.10
2018-10-11T10:07:40.890Z,19.10
2018-10-11T10:10:09.093Z,19.20
2018-10-11T10:12:37.241Z,19.30
2018-10-11T10:15:05.502Z,19.70
2018-10-11T10:17:34.005Z,19.80
2018-10-11T10:20:02.386Z,19.90
2018-10-11T10:22:30.589Z,20.00
2018-10-11T10:24:58.756Z,20.10
2018-10-11T10:27:27.084Z,19.70
2018-10-11T10:29:55.171Z,19.90
2018-10-11T10:32:23.445Z,19.70
2018-10-11T10:34:51.674Z,19.70
2018-10-11T10:37:19.919Z,20.00
2018-10-11T10:39:48.141Z,20.00
2018-10-11T10:42:16.294Z,20.00
2018-10-11T10:44:44.499Z,20.00
2018-10-11T10:47:12.712Z,20.10
2018-10-11T10:49:40.864Z,20.90
2018-10-11T10:52:09.041Z,21.50
2018-10-11T10:54:37.200Z,20.60
2018-10-11T10:57:06.040Z,19.80
2018-10-11T10:59:34.256Z,19.70
2018-10-11T11:02:02.442Z,20.90
2018-10-11T11:04:30.656Z,21.40
2018-10-11T11:06:58.817Z,21.60
2018-10-11T11:09:27.036Z,21.80
2018-10-11T11:11:55.271Z,21.90
2018-10-11T11:14:23.486Z,21.80
2018-10-11T11:16:51.754Z,21.70
2018-10-11T11:19:19.979Z,22.20
2018-10-11T11:21:48.265Z,21.90
2018-10-11T11:24:16.425Z,20.80
2018-10-11T11:26:44.679Z,21.90
2018-10-11T11:29:12.896Z,23.20
2018-10-11T11:31:41.037Z,23.70
2018-10-11T11:34:09.226Z,22.50
2018-10-11T11:36:37.405Z,22.60
2018-10-11T11:39:08.272Z,21.70
2018-10-11T11:41:36.567Z,21.20
2018-10-11T11:44:04.828Z,21.80
2018-10-11T11:46:33.022Z,21.00
2018-10-11T11:49:02.537Z,20.80
2018-10-11T11:51:30.688Z,20.40
2018-10-11T11:53:58.905Z,20.00
2018-10-11T11:56:27.074Z,20.20
2018-10-11T11:58:55.248Z,20.30
2018-10-11T12:01:23.451Z,20.50
2018-10-11T12:03:51.669Z,20.90
2018-10-11T12:06:19.872Z,20.80
2018-10-11T12:08:48.041Z,20.70
2018-10-11T12:11:16.206Z,20.90
2018-10-11T12:13:44.409Z,21.60
2018-10-11T12:16:12.599Z,21.70
2018-10-11T12:18:43.677Z,21.60
2018-10-11T12:21:11.870Z,21.50
2018-10-11T12:23:40.082Z,20.90
2018-10-11T12:26:08.297Z,21.00
2018-10-11T12:28:36.620Z,20.60
2018-10-11T12:31:04.644Z,20.70
2018-10-11T12:33:32.981Z,20.90
2018-10-11T12:36:01.180Z,21.50
2018-10-11T12:38:29.389Z,21.90
2018-10-11T12:40:57.566Z,22.50
2018-10-11T12:43:25.759Z,22.50
2018-10-11T12:45:53.933Z,23.50
2018-10-11T12:48:22.121Z,23.60
2018-10-11T12:50:50.285Z,23.40
2018-10-11T12:53:18.488Z,23.10
2018-10-11T12:55:46.698Z,22.90
2018-10-11T12:58:14.890Z,22.30
2018-10-11T13:00:43.084Z,21.50
2018-10-11T13:03:11.262Z,21.30
2018-10-11T13:05:39.432Z,21.10
2018-10-11T13:08:07.697Z,21.30
2018-10-11T13:10:35.931Z,21.50
2018-10-11T13:13:04.129Z,21.50
2018-10-11T13:15:32.320Z,21.70
2018-10-11T13:18:00.489Z,21.30
2018-10-11T13:20:28.664Z,21.60
2018-10-11T13:22:56.910Z,21.60
2018-10-11T13:25:25.081Z,21.30
2018-10-11T13:27:53.251Z,21.10
2018-10-11T13:30:21.433Z,21.10
2018-10-11T13:32:49.630Z,21.30
2018-10-11T13:35:17.902Z,21.20
2018-10-11T13:37:46.075Z,21.20
2018-10-11T13:40:14.253Z,21.30
2018-10-11T13:42:42.425Z,21.30
2018-10-11T13:45:10.584Z,21.40
2018-10-11T13:47:42.325Z,21.50
2018-10-11T13:50:07.168Z,21.30
2018-10-11T13:52:35.438Z,21.50
2018-10-11T13:55:09.646Z,21.50
2018-10-11T13:57:31.949Z,21.40
2018-10-11T14:00:00.140Z,21.40
2018-10-11T14:02:28.318Z,21.40
2018-10-11T14:04:56.508Z,21.30
2018-10-11T14:07:24.705Z,21.40
2018-10-11T14:09:52.900Z,21.60
2018-10-11T14:12:21.094Z,21.90
2018-10-11T14:14:49.294Z,21.80
2018-10-11T14:17:17.585Z,21.90
2018-10-11T14:19:45.798Z,21.70
2018-10-11T14:22:14.021Z,21.80
2018-10-11T14:24:42.209Z,21.70
2018-10-11T14:27:10.477Z,21.60
2018-10-11T14:29:38.638Z,21.40
2018-10-11T14:32:07.084Z,21.50
2018-10-11T14:34:35.304Z,21.40
2018-10-11T14:37:03.607Z,21.20
2018-10-11T14:39:31.755Z,21.20
2018-10-11T14:41:59.980Z,21.30
2018-10-11T14:44:28.200Z,21.20
2018-10-11T14:46:56.341Z,21.30
2018-10-11T14:49:24.526Z,21.20
2018-10-11T14:51:52.737Z,21.20
2018-10-11T14:54:20.929Z,21.10
2018-10-11T14:56:49.125Z,21.10
2018-10-11T14:59:17.350Z,21.10
2018-10-11T15:01:45.526Z,21.10
2018-10-11T15:04:13.725Z,20.90
2018-10-11T15:06:41.965Z,21.20
2018-10-11T15:09:10.634Z,21.80
2018-10-11T15:11:39.036Z,22.40
2018-10-11T15:14:07.105Z,22.40
2018-10-11T15:16:35.265Z,22.00
2018-10-11T15:19:03.494Z,21.50
2018-10-11T15:21:31.925Z,21.80
2018-10-11T15:24:00.216Z,21.70
2018-10-11T15:26:28.352Z,21.50
2018-10-11T15:28:56.671Z,21.40
2018-10-11T15:31:24.855Z,21.60
2018-10-11T15:33:53.056Z,21.80
2018-10-11T15:36:21.237Z,21.90
2018-10-11T15:38:49.416Z,21.70
2018-10-11T15:41:17.629Z,21.60
2018-10-11T15:43:45.825Z,21.50
2018-10-11T15:46:14.029Z,21.80
2018-10-11T15:48:42.240Z,21.70
2018-10-11T15:51:10.425Z,21.60
2018-10-11T15:53:38.643Z,21.70
2018-10-11T15:56:07.144Z,21.70
2018-10-11T15:58:35.415Z,21.50
2018-10-11T16:01:03.532Z,21.40
2018-10-11T16:03:31.708Z,21.20
2018-10-11T16:05:59.893Z,21.20
2018-10-11T16:08:28.120Z,21.20
2018-10-11T16:10:56.292Z,21.00
2018-10-11T16:13:24.533Z,20.80
2018-10-11T16:15:52.738Z,20.70
2018-10-11T16:18:20.921Z,20.50
2018-10-11T16:20:49.085Z,20.50
2018-10-11T16:23:17.305Z,20.40
2018-10-11T16:25:45.481Z,20.20
2018-10-11T16:28:13.661Z,20.10
2018-10-11T16:30:41.867Z,20.00
2018-10-11T16:33:10.039Z,20.00
2018-10-11T16:35:38.262Z,19.90
2018-10-11T16:38:06.436Z,19.80
2018-10-11T16:40:34.613Z,19.70
2018-10-11T16:43:02.814Z,19.50
2018-10-11T16:45:30.998Z,19.50
2018-10-11T16:47:59.263Z,19.30
2018-10-11T16:50:27.513Z,19.30
2018-10-11T16:52:55.680Z,19.20
2018-10-11T16:55:23.861Z,19.10
2018-10-11T16:57:52.067Z,19.00
2018-10-11T17:00:20.331Z,19.00
2018-10-11T17:02:48.497Z,18.90
2018-10-11T17:05:16.812Z,18.80
2018-10-11T17:07:45.040Z,18.80
2018-10-11T17:10:13.260Z,18.70
2018-10-11T17:12:41.465Z,18.40
2018-10-11T17:15:09.678Z,18.30
2018-10-11T17:17:37.836Z,18.20
2018-10-11T17:20:06.201Z,18.00
2018-10-11T17:22:34.405Z,17.80
2018-10-11T17:25:02.696Z,17.60
2018-10-11T17:27:31.125Z,17.50
2018-10-11T17:29:59.422Z,17.30
2018-10-11T17:32:27.581Z,17.20
2018-10-11T17:34:55.780Z,17.20
2018-10-11T17:37:23.965Z,17.00
2018-10-11T17:39:52.157Z,17.00
2018-10-11T17:42:20.339Z,16.90
2018-10-11T17:44:48.676Z,17.00
2018-10-11T17:47:16.841Z,16.90
2018-10-11T17:49:45.047Z,16.90
2018-10-11T17:52:13.242Z,16.90
2018-10-11T17:54:45.693Z,17.00
2018-10-11T17:57:13.862Z,17.10
2018-10-11T17:59:42.033Z,17.10
2018-10-11T18:02:10.213Z,17.20
2018-10-11T18:04:38.472Z,17.10
2018-10-11T18:07:06.758Z,17.00
2018-10-11T18:09:34.968Z,17.00
2018-10-11T18:12:03.152Z,16.90
2018-10-11T18:14:31.322Z,17.00
2018-10-11T18:16:59.506Z,16.80
2018-10-11T18:19:27.705Z,16.60
2018-10-11T18:21:55.888Z,16.60
2018-10-11T18:24:24.063Z,16.50
2018-10-11T18:26:52.372Z,16.70
2018-10-11T18:29:20.692Z,17.00
2018-10-11T18:31:48.888Z,17.10
2018-10-11T18:34:17.085Z,17.20
2018-10-11T18:36:45.322Z,17.00
2018-10-11T18:39:14.885Z,16.90
2018-10-11T18:41:43.341Z,17.00
2018-10-11T18:44:12.142Z,17.20
2018-10-11T18:46:40.312Z,17.30
2018-10-11T18:49:08.885Z,17.30
2018-10-11T18:51:37.062Z,17.40
2018-10-11T18:54:05.271Z,17.40
2018-10-11T18:56:33.442Z,17.50
2018-10-11T18:59:01.688Z,17.60
2018-10-11T19:01:29.934Z,17.30
2018-10-11T19:03:58.117Z,16.90
2018-10-11T19:06:26.559Z,16.60
2018-10-11T19:08:54.713Z,16.60
2018-10-11T19:11:22.955Z,16.60
2018-10-11T19:13:51.190Z,16.40
2018-10-11T19:16:19.365Z,16.20
2018-10-11T19:18:47.553Z,16.00
2018-10-11T19:21:15.967Z,16.00
2018-10-11T19:23:44.136Z,16.00
2018-10-11T19:26:12.302Z,16.00
2018-10-11T19:28:40.549Z,16.00
2018-10-11T19:31:08.913Z,16.00
2018-10-11T19:33:37.120Z,16.00
2018-10-11T19:36:05.304Z,15.90
2018-10-11T19:38:33.503Z,15.90
2018-10-11T19:41:01.693Z,15.90
2018-10-11T19:43:29.872Z,15.80
2018-10-11T19:45:58.041Z,15.80
2018-10-11T19:48:26.311Z,15.70
2018-10-11T19:50:54.436Z,15.70
2018-10-11T19:53:22.624Z,15.70
2018-10-11T19:55:50.869Z,15.70
2018-10-11T19:58:19.229Z,15.60
2018-10-11T20:00:47.419Z,15.80
2018-10-11T20:03:15.662Z,16.00
2018-10-11T20:05:43.957Z,16.20
2018-10-11T20:08:12.457Z,16.20
2018-10-11T20:10:40.518Z,15.80
2018-10-11T20:13:08.765Z,15.50
2018-10-11T20:15:36.934Z,15.30
2018-10-11T20:18:05.277Z,15.30
2018-10-11T20:20:33.536Z,15.40
2018-10-11T20:23:01.698Z,15.50
2018-10-11T20:25:29.879Z,15.60
2018-10-11T20:27:58.201Z,15.50
2018-10-11T20:30:26.386Z,15.50
2018-10-11T20:32:54.580Z,15.60
2018-10-11T20:35:22.797Z,15.50
2018-10-11T20:37:50.954Z,15.50
2018-10-11T20:40:19.134Z,15.40
2018-10-11T20:42:47.346Z,15.40
2018-10-11T20:45:15.524Z,15.60
2018-10-11T20:47:43.765Z,15.60
2018-10-11T20:50:11.955Z,15.90
2018-10-11T20:52:40.181Z,16.00
2018-10-11T20:55:08.525Z,16.00
2018-10-11T20:57:36.726Z,16.00
2018-10-11T21:00:05.061Z,15.90
2018-10-11T21:02:33.256Z,15.80
2018-10-11T21:05:01.478Z,15.90
2018-10-11T21:07:29.781Z,16.10
2018-10-11T21:09:57.993Z,16.10
2018-10-11T21:12:26.180Z,15.90
2018-10-11T21:14:54.475Z,15.90
2018-10-11T21:17:22.677Z,15.90
2018-10-11T21:19:50.907Z,15.90
2018-10-11T21:22:19.132Z,16.00
2018-10-11T21:24:47.340Z,16.00
2018-10-11T21:27:15.623Z,16.00
2018-10-11T21:29:43.792Z,16.00
2018-10-11T21:32:11.988Z,15.90
2018-10-11T21:34:40.213Z,15.80
2018-10-11T21:37:08.416Z,15.80
2018-10-11T21:39:36.594Z,15.50
2018-10-11T21:42:04.784Z,15.00
2018-10-11T21:44:32.956Z,14.70
2018-10-11T21:47:01.162Z,14.60
2018-10-11T21:49:29.453Z,14.40
2018-10-11T21:51:57.637Z,14.30
2018-10-11T21:54:25.809Z,14.20
2018-10-11T21:56:53.996Z,14.40
2018-10-11T21:59:22.184Z,14.40
2018-10-11T22:01:50.442Z,14.30
2018-10-11T22:04:18.639Z,14.20
2018-10-11T22:06:46.829Z,14.10
2018-10-11T22:09:15.001Z,14.30
2018-10-11T22:11:43.188Z,14.20
2018-10-11T22:14:11.382Z,14.30
2018-10-11T22:16:39.645Z,14.00
2018-10-11T22:19:08.196Z,13.70
2018-10-11T22:21:36.380Z,13.50
2018-10-11T22:24:04.557Z,13.60
2018-10-11T22:26:32.746Z,13.70
2018-10-11T22:29:00.908Z,13.90
2018-10-11T22:31:29.129Z,13.50
2018-10-11T22:33:57.878Z,13.30
2018-10-11T22:36:26.105Z,13.30
2018-10-11T22:38:54.448Z,13.30
2018-10-11T22:41:22.626Z,13.30
2018-10-11T22:43:50.881Z,13.10
2018-10-11T22:46:19.060Z,13.20
2018-10-11T22:48:47.293Z,13.20
2018-10-11T22:51:15.633Z,13.40
2018-10-11T22:53:43.841Z,13.60
2018-10-11T22:56:11.993Z,13.50
2018-10-11T22:58:40.479Z,13.50
2018-10-11T23:01:08.660Z,13.70
2018-10-11T23:03:36.849Z,13.60
2018-10-11T23:06:05.345Z,13.50
2018-10-11T23:08:33.585Z,13.10
2018-10-11T23:11:01.821Z,13.30
2018-10-11T23:13:30.018Z,13.40
2018-10-11T23:15:58.177Z,13.30
2018-10-11T23:18:26.357Z,13.30
2018-10-11T23:20:54.922Z,13.20
2018-10-11T23:23:23.117Z,13.00
2018-10-11T23:25:51.269Z,13.00
2018-10-11T23:28:19.498Z,13.20
2018-10-11T23:30:47.736Z,13.10
2018-10-11T23:33:15.958Z,12.90
2018-10-11T23:35:44.195Z,12.80
2018-10-11T23:38:12.380Z,12.80
2018-10-11T23:40:41.433Z,12.90
2018-10-11T23:43:09.664Z,12.90
2018-10-11T23:45:37.871Z,12.90
2018-10-11T23:48:06.036Z,13.20
2018-10-11T23:50:34.226Z,13.20
2018-10-11T23:53:02.381Z,13.30
2018-10-11T23:55:32.197Z,13.30
2018-10-11T23:58:01.312Z,13.30
